createdAt,value
2018-06-27T00:02:53.470Z,1.67
2018-06-27T00:08:48.514Z,1.83
2018-06-27T00:14:43.481Z,1.75
2018-06-27T00:20:38.498Z,1.78
2018-06-27T00:26:33.520Z,1.78
2018-06-27T00:32:28.471Z,2.02
2018-06-27T00:38:23.510Z,1.62
2018-06-27T00:44:18.461Z,1.81
2018-06-27T00:50:13.469Z,1.73
2018-06-27T00:56:08.501Z,1.67
2018-06-27T01:02:03.524Z,1.72
2018-06-27T01:07:58.509Z,1.76
2018-06-27T01:13:53.517Z,1.82
2018-06-27T01:19:48.498Z,1.83
2018-06-27T01:25:43.521Z,1.98
2018-06-27T01:31:38.544Z,1.78
2018-06-27T01:37:33.515Z,1.79
2018-06-27T01:43:28.553Z,1.7
2018-06-27T01:49:23.522Z,1.91
2018-06-27T01:55:18.639Z,1.68
2018-06-27T02:01:13.564Z,2.06
2018-06-27T02:07:08.549Z,2
2018-06-27T02:13:03.550Z,1.82
2018-06-27T02:18:58.607Z,1.76
2018-06-27T02:24:53.593Z,1.97
2018-06-27T02:30:48.540Z,1.8
2018-06-27T02:36:43.615Z,1.81
2018-06-27T02:42:38.597Z,1.73
2018-06-27T02:48:33.588Z,1.64
2018-06-27T02:54:28.610Z,1.77
2018-06-27T03:00:23.637Z,1.73
2018-06-27T03:06:18.570Z,1.61
2018-06-27T03:12:13.581Z,1.68
2018-06-27T03:18:08.591Z,2.35
2018-06-27T03:24:03.580Z,1.8
2018-06-27T03:29:58.597Z,1.88
2018-06-27T03:35:53.570Z,2.48
2018-06-27T03:41:48.599Z,1.88
2018-06-27T03:47:43.606Z,1.99
2018-06-27T03:53:38.617Z,1.87
2018-06-27T03:59:33.605Z,3.18
2018-06-27T04:05:28.600Z,2.57
2018-06-27T04:11:23.622Z,2.7
2018-06-27T04:17:18.634Z,2.73
2018-06-27T04:23:13.629Z,2.51
2018-06-27T04:29:08.665Z,2.99
2018-06-27T04:35:03.722Z,3.39
2018-06-27T04:40:58.669Z,2.5
2018-06-27T04:46:53.652Z,2.56
2018-06-27T04:52:48.699Z,2.65
2018-06-27T04:58:43.629Z,2.63
2018-06-27T05:04:38.636Z,3.54
2018-06-27T05:10:33.625Z,2.96
2018-06-27T05:16:28.644Z,3.56
2018-06-27T05:22:23.677Z,3.17
2018-06-27T05:28:18.686Z,3.54
2018-06-27T05:34:13.654Z,3.59
2018-06-27T05:40:08.661Z,3.62
2018-06-27T05:46:03.695Z,4.02
2018-06-27T05:51:58.706Z,3.29
2018-06-27T05:57:53.689Z,3.93
2018-06-27T06:03:48.675Z,3.87
2018-06-27T06:09:43.700Z,4.37
2018-06-27T06:15:38.702Z,4.8
2018-06-27T06:21:33.689Z,3.48
2018-06-27T06:27:28.703Z,5.58
2018-06-27T06:33:23.810Z,8.36
2018-06-27T06:39:18.653Z,8.61
2018-06-27T06:45:13.719Z,3.58
2018-06-27T06:51:08.742Z,5.63
2018-06-27T06:57:03.727Z,5.35
2018-06-27T07:02:58.703Z,6.76
2018-06-27T07:08:53.700Z,5.81
2018-06-27T07:14:48.710Z,6.1
2018-06-27T07:20:43.761Z,5.32
2018-06-27T07:26:38.808Z,7.61
2018-06-27T07:32:33.722Z,4.44
2018-06-27T07:38:28.740Z,5.47
2018-06-27T07:44:23.748Z,4.24
2018-06-27T07:50:18.789Z,5.98
2018-06-27T07:56:13.741Z,4.39
2018-06-27T09:13:45.003Z,4.01
2018-06-27T09:25:34.998Z,4.1
2018-06-27T09:31:30.015Z,2.61
2018-06-27T09:37:25.041Z,3.1
2018-06-27T09:43:20.055Z,2.91
2018-06-27T09:49:15.030Z,8.85
2018-06-27T09:55:10.069Z,6.95
2018-06-27T10:01:05.025Z,14.57
2018-06-27T10:07:00.065Z,29.15
2018-06-27T10:12:55.062Z,42.42
2018-06-27T10:18:50.017Z,56.36
2018-06-27T10:24:45.060Z,21.93
2018-06-27T10:30:40.074Z,43.25
2018-06-27T10:36:35.060Z,53.07
2018-06-27T10:42:30.070Z,53.1
2018-06-27T10:48:25.016Z,40.17
2018-06-27T10:54:20.052Z,3.58
2018-06-27T11:00:15.457Z,16.31
2018-06-27T11:06:10.051Z,21.65
2018-06-27T11:12:05.142Z,18.01
2018-06-27T11:18:00.165Z,9.54
2018-06-27T11:23:55.139Z,55.95
2018-06-27T11:29:50.085Z,64.43
2018-06-27T11:35:45.086Z,50.06
2018-06-27T11:41:40.444Z,87.43
2018-06-27T11:47:35.473Z,114.33
2018-06-27T11:53:30.388Z,74.09
2018-06-27T11:59:25.558Z,107
2018-06-27T12:05:21.047Z,77.94
2018-06-27T12:11:15.528Z,58.7
2018-06-27T12:17:10.145Z,95.86
2018-06-27T12:23:05.107Z,63.92
2018-06-27T12:29:00.557Z,153.66
2018-06-27T12:34:55.715Z,149.13
2018-06-27T12:40:50.155Z,154.67
2018-06-27T12:46:45.631Z,133.92
2018-06-27T12:52:40.128Z,166.19
2018-06-27T12:58:35.256Z,161.23
2018-06-27T13:04:30.342Z,165.06
2018-06-27T13:10:25.205Z,79.95
2018-06-27T13:16:20.144Z,50.31
2018-06-27T13:22:15.185Z,81.35
2018-06-27T13:28:10.215Z,126.55
2018-06-27T13:34:05.208Z,108.4
2018-06-27T13:40:00.189Z,127.07
2018-06-27T13:45:55.446Z,126.45
2018-06-27T13:51:50.217Z,112.26
2018-06-27T13:57:45.194Z,117.12
2018-06-27T14:03:40.153Z,108.18
2018-06-27T14:09:35.191Z,91.42
2018-06-27T14:15:30.155Z,74.84
2018-06-27T14:21:25.187Z,121.94
2018-06-27T14:27:20.361Z,109.58
2018-06-27T14:33:15.188Z,94.84
2018-06-27T14:39:10.180Z,113.59
2018-06-27T14:45:05.279Z,120.45
2018-06-27T14:51:00.540Z,118.52
2018-06-27T14:56:55.638Z,136.8
2018-06-27T15:02:50.370Z,111.28
2018-06-27T15:08:45.452Z,131.52
2018-06-27T15:14:40.551Z,180.46
2018-06-27T15:20:35.639Z,183.55
2018-06-27T15:26:30.270Z,174.55
2018-06-27T15:32:25.361Z,167.16
2018-06-27T15:38:20.244Z,159.96
2018-06-27T15:44:15.324Z,143.26
2018-06-27T15:50:10.801Z,140.42
2018-06-27T15:56:05.304Z,154.87
2018-06-27T16:02:00.238Z,153.99
2018-06-27T16:07:55.237Z,133.76
2018-06-27T16:13:50.252Z,112.37
2018-06-27T16:19:45.272Z,124.48
2018-06-27T16:25:40.269Z,122.23
2018-06-27T16:31:35.327Z,125.48
2018-06-27T16:37:30.305Z,69.85
2018-06-27T16:43:25.400Z,114.6
2018-06-27T16:49:20.255Z,120.05
2018-06-27T16:55:15.264Z,124.47
2018-06-27T17:01:10.398Z,90.49
2018-06-27T17:07:05.343Z,9.13
2018-06-27T17:13:00.365Z,53.13
2018-06-27T17:18:55.311Z,33.95
2018-06-27T17:24:50.271Z,16.28
2018-06-27T17:30:45.299Z,37.45
2018-06-27T17:36:40.271Z,38.32
2018-06-27T17:42:35.321Z,7.76
2018-06-27T17:48:30.334Z,2.23
2018-06-27T17:54:25.296Z,6.77
2018-06-27T18:00:20.356Z,26.44
2018-06-27T18:06:15.329Z,14.47
2018-06-27T18:12:10.324Z,16.01
2018-06-27T18:18:05.325Z,16.35
2018-06-27T18:24:00.319Z,21.08
2018-06-27T18:29:55.357Z,20.06
2018-06-27T18:35:50.335Z,6.39
2018-06-27T18:41:45.304Z,17.86
2018-06-27T18:47:40.337Z,2.72
2018-06-27T18:53:35.374Z,13.21
2018-06-27T18:59:30.313Z,2.77
2018-06-27T19:05:25.353Z,2.33
2018-06-27T19:11:20.380Z,1.83
2018-06-27T19:17:15.357Z,1.69
2018-06-27T19:23:10.341Z,1.69
2018-06-27T19:29:05.364Z,1.97
2018-06-27T19:35:00.351Z,14.82
2018-06-27T19:40:55.466Z,10.1
2018-06-27T19:46:50.388Z,2.98
2018-06-27T19:52:45.378Z,5.59
2018-06-27T19:58:40.366Z,2.83
2018-06-27T20:04:35.364Z,4.2
2018-06-27T20:10:30.408Z,1.69
2018-06-27T20:16:25.441Z,1.36
2018-06-27T20:22:20.425Z,1.42
2018-06-27T20:28:15.409Z,2.63
2018-06-27T20:34:10.397Z,2.94
2018-06-27T20:40:05.416Z,1.4
2018-06-27T20:46:00.403Z,1.18
2018-06-27T20:51:55.411Z,1.83
2018-06-27T20:57:50.432Z,4.13
2018-06-27T21:03:45.385Z,4.23
2018-06-27T21:09:40.425Z,2.2
2018-06-27T21:15:35.406Z,2.34
2018-06-27T21:21:30.401Z,3.66
2018-06-27T21:27:25.427Z,1.96
2018-06-27T21:33:20.481Z,1.61
2018-06-27T21:39:15.421Z,1.8
2018-06-27T21:45:10.452Z,1.73
2018-06-27T21:51:05.429Z,2.29
2018-06-27T21:57:00.439Z,1.8
2018-06-27T22:02:55.465Z,1.97
2018-06-27T22:08:50.482Z,2.07
2018-06-27T22:14:45.484Z,1.99
2018-06-27T22:20:40.496Z,2.4
2018-06-27T22:26:35.457Z,2.15
2018-06-27T22:32:30.456Z,2
2018-06-27T22:38:25.458Z,2.19
2018-06-27T22:44:20.475Z,1.88
2018-06-27T22:50:15.475Z,2.12
2018-06-27T22:56:10.480Z,1.83
2018-06-27T23:02:05.504Z,1.73
2018-06-27T23:08:00.491Z,1.64
2018-06-27T23:13:55.503Z,1.83
2018-06-27T23:19:50.502Z,1.53
2018-06-27T23:25:45.475Z,1.99
2018-06-27T23:31:40.560Z,1.7
2018-06-27T23:37:35.512Z,1.84
2018-06-27T23:43:30.500Z,2.06
2018-06-27T23:49:25.500Z,1.74
2018-06-27T23:55:20.574Z,1.73
